createdAt,value
2023-05-05T00:00:10.503Z,100661.06
2023-05-05T00:00:23.106Z,100666.41
2023-05-05T00:00:34.865Z,100661.06
2023-05-05T00:00:46.695Z,100670.94
2023-05-05T00:00:58.453Z,100668.09
2023-05-05T00:01:10.137Z,100665.59
2023-05-05T00:01:21.888Z,100670.75
2023-05-05T00:01:33.703Z,100672.63
2023-05-05T00:01:45.566Z,100663.13
2023-05-05T00:01:57.398Z,100670.75
2023-05-05T00:02:09.291Z,100667.25
2023-05-05T00:02:21.034Z,100659.22
2023-05-05T00:02:32.778Z,100665.41
2023-05-05T00:02:44.683Z,100661.25
2023-05-05T00:02:56.481Z,100663.13
2023-05-05T00:03:08.362Z,100656.72
2023-05-05T00:03:21.105Z,100667.25
2023-05-05T00:03:34.097Z,100667.25
2023-05-05T00:03:46.027Z,100657.75
2023-05-05T00:03:57.874Z,100661.25
2023-05-05T00:04:09.535Z,100666.41
2023-05-05T00:04:21.275Z,100657.53
2023-05-05T00:04:33.050Z,100666.41
2023-05-05T00:04:44.677Z,100664.78
2023-05-05T00:04:56.395Z,100660.22
2023-05-05T00:05:08.321Z,100662.09
2023-05-05T00:05:20.095Z,100666.41
2023-05-05T00:05:31.768Z,100664.78
2023-05-05T00:05:43.451Z,100670.13
2023-05-05T00:05:55.278Z,100661.25
2023-05-05T00:06:07.463Z,100663.13
2023-05-05T00:06:19.216Z,100662.50
2023-05-05T00:06:30.929Z,100665.16
2023-05-05T00:06:42.673Z,100657.13
2023-05-05T00:06:54.361Z,100661.63
2023-05-05T00:07:06.111Z,100667.84
2023-05-05T00:07:17.877Z,100661.63
2023-05-05T00:07:29.589Z,100665.16
2023-05-05T00:07:41.363Z,100664.31
2023-05-05T00:07:53.005Z,100664.31
2023-05-05T00:08:04.879Z,100660.81
2023-05-05T00:08:16.668Z,100669.69
2023-05-05T00:08:28.421Z,100662.84
2023-05-05T00:08:40.235Z,100662.66
2023-05-05T00:08:51.957Z,100661.84
2023-05-05T00:09:03.749Z,100663.91
2023-05-05T00:09:15.446Z,100657.50
2023-05-05T00:09:27.152Z,100668.22
2023-05-05T00:09:38.816Z,100663.72
2023-05-05T00:09:50.543Z,100662.84
2023-05-05T00:10:02.436Z,100663.91
2023-05-05T00:10:14.183Z,100667.59
2023-05-05T00:10:25.937Z,100663.06
2023-05-05T00:10:37.672Z,100671.13
2023-05-05T00:10:50.716Z,100665.75
2023-05-05T00:11:02.437Z,100662.22
2023-05-05T00:11:15.521Z,100658.72
2023-05-05T00:11:27.273Z,100664.91
2023-05-05T00:11:38.944Z,100663.06
2023-05-05T00:11:50.603Z,100665.94
2023-05-05T00:12:02.396Z,100660.75
2023-05-05T00:12:14.083Z,100666.75
2023-05-05T00:12:25.840Z,100665.94
2023-05-05T00:12:37.620Z,100669.66
2023-05-05T00:12:49.477Z,100667.81
2023-05-05T00:13:01.294Z,100657.91
2023-05-05T00:13:13.614Z,100652.09
2023-05-05T00:13:25.442Z,100660.56
2023-05-05T00:13:38.650Z,100665.94
2023-05-05T00:13:50.728Z,100663.25
2023-05-05T00:14:02.470Z,100660.56
2023-05-05T00:14:14.325Z,100660.75
2023-05-05T00:14:26.017Z,100659.75
2023-05-05T00:14:37.730Z,100659.94
2023-05-05T00:14:49.535Z,100666.13
2023-05-05T00:15:01.303Z,100668.81
2023-05-05T00:15:12.956Z,100661.81
2023-05-05T00:15:24.864Z,100666.34
2023-05-05T00:15:36.680Z,100662.63
2023-05-05T00:15:50.756Z,100667.16
2023-05-05T00:16:02.519Z,100665.47
2023-05-05T00:16:14.205Z,100671.69
2023-05-05T00:16:26.005Z,100665.69
2023-05-05T00:16:37.856Z,100661.34
2023-05-05T00:16:49.600Z,100665.47
2023-05-05T00:17:01.415Z,100665.69
2023-05-05T00:17:13.357Z,100664.03
2023-05-05T00:17:25.274Z,100663.84
2023-05-05T00:17:37.075Z,100664.84
2023-05-05T00:17:49.031Z,100664.25
2023-05-05T00:18:00.774Z,100662.16
2023-05-05T00:18:14.568Z,100666.72
2023-05-05T00:18:26.314Z,100661.56
2023-05-05T00:18:37.981Z,100665.06
2023-05-05T00:18:49.659Z,100668.56
2023-05-05T00:19:01.347Z,100661.75
2023-05-05T00:19:13.233Z,100671.25
2023-05-05T00:19:25.071Z,100660.06
2023-05-05T00:19:36.745Z,100667.75
2023-05-05T00:19:48.515Z,100666.94
2023-05-05T00:20:00.204Z,100660.72
2023-05-05T00:20:12.698Z,100661.75
2023-05-05T00:20:24.394Z,100666.47
2023-05-05T00:20:36.237Z,100668.97
2023-05-05T00:20:48.608Z,100666.47
2023-05-05T00:21:00.403Z,100662.16
2023-05-05T00:21:12.097Z,100663.78
2023-05-05T00:21:23.821Z,100660.66
2023-05-05T00:21:35.497Z,100662.97
2023-05-05T00:21:47.194Z,100663.78
2023-05-05T00:21:58.914Z,100663.16
2023-05-05T00:22:10.571Z,100671.19
2023-05-05T00:22:22.277Z,100665.84
2023-05-05T00:22:34.061Z,100659.84
2023-05-05T00:22:45.803Z,100663.16
2023-05-05T00:22:59.758Z,100657.16
2023-05-05T00:23:11.492Z,100669.53
2023-05-05T00:23:23.283Z,100671.19
2023-05-05T00:23:35.043Z,100663.34
2023-05-05T00:23:46.800Z,100660.88
2023-05-05T00:23:58.425Z,100667.06
2023-05-05T00:24:10.155Z,100666.22
2023-05-05T00:24:21.831Z,100663.56
2023-05-05T00:24:33.560Z,100664.38
2023-05-05T00:24:45.350Z,100671.59
2023-05-05T00:25:02.886Z,100664.56
2023-05-05T00:25:14.765Z,100665.41
2023-05-05T00:25:26.876Z,100661.25
2023-05-05T00:25:38.831Z,100664.56
2023-05-05T00:25:50.562Z,100669.09
2023-05-05T00:26:02.316Z,100662.09
2023-05-05T00:26:15.484Z,100670.75
2023-05-05T00:26:31.308Z,100660.22
2023-05-05T00:26:43.110Z,100660.22
2023-05-05T00:26:55.194Z,100662.91
2023-05-05T00:27:07.000Z,100660.22
2023-05-05T00:27:18.837Z,100661.25
2023-05-05T00:27:30.580Z,100663.91
2023-05-05T00:27:42.296Z,100662.44
2023-05-05T00:27:53.986Z,100657.09
2023-05-05T00:28:05.770Z,100660.63
2023-05-05T00:28:17.448Z,100655.28
2023-05-05T00:28:29.130Z,100659.78
2023-05-05T00:28:40.804Z,100659.59
2023-05-05T00:28:52.544Z,100663.50
2023-05-05T00:29:04.262Z,100653.78
2023-05-05T00:29:15.969Z,100653.59
2023-05-05T00:29:27.815Z,100654.63
2023-05-05T00:29:39.534Z,100656.47
2023-05-05T00:29:51.253Z,100661.63
2023-05-05T00:30:03.168Z,100658.13
2023-05-05T00:30:14.909Z,100656.47
2023-05-05T00:30:27.055Z,100663.69
2023-05-05T00:30:40.055Z,100661.00
2023-05-05T00:30:51.914Z,100661.00
2023-05-05T00:31:03.805Z,100657.50
2023-05-05T00:31:15.530Z,100655.00
2023-05-05T00:31:27.312Z,100654.81
2023-05-05T00:31:39.098Z,100657.50
2023-05-05T00:31:51.076Z,100659.34
2023-05-05T00:32:02.722Z,100657.69
2023-05-05T00:32:14.581Z,100664.72
2023-05-05T00:32:26.263Z,100655.22
2023-05-05T00:32:38.005Z,100655.84
2023-05-05T00:32:50.014Z,100654.19
2023-05-05T00:33:01.834Z,100666.56
2023-05-05T00:33:14.003Z,100661.41
2023-05-05T00:33:25.693Z,100653.34
2023-05-05T00:33:37.365Z,100655.22
2023-05-05T00:33:49.089Z,100656.03
2023-05-05T00:34:00.865Z,100659.72
2023-05-05T00:34:12.626Z,100654.34
2023-05-05T00:34:24.464Z,100659.72
2023-05-05T00:34:36.151Z,100657.88
2023-05-05T00:34:47.766Z,100658.25
2023-05-05T00:34:59.650Z,100652.72
2023-05-05T00:35:11.395Z,100649.22
2023-05-05T00:35:23.265Z,100648.56
2023-05-05T00:35:35.487Z,100653.72
2023-05-05T00:35:47.206Z,100655.41
2023-05-05T00:35:58.914Z,100659.06
2023-05-05T00:36:10.689Z,100659.06
2023-05-05T00:36:22.383Z,100650.44
2023-05-05T00:36:34.116Z,100662.78
2023-05-05T00:36:45.766Z,100659.94
2023-05-05T00:36:57.451Z,100652.06
2023-05-05T00:37:09.198Z,100650.44
2023-05-05T00:37:20.966Z,100653.13
2023-05-05T00:37:32.838Z,100648.75
2023-05-05T00:37:44.561Z,100650.44
2023-05-05T00:37:56.214Z,100657.44
2023-05-05T00:38:07.936Z,100656.63
2023-05-05T00:38:19.641Z,100659.28
2023-05-05T00:38:31.294Z,100654.13
2023-05-05T00:38:42.934Z,100653.13
2023-05-05T00:38:54.652Z,100656.78
2023-05-05T00:39:06.361Z,100658.66
2023-05-05T00:39:18.083Z,100656.16
2023-05-05T00:39:29.885Z,100661.50
2023-05-05T00:39:41.700Z,100647.94
2023-05-05T00:39:53.339Z,100653.47
2023-05-05T00:40:06.334Z,100653.28
2023-05-05T00:40:18.235Z,100650.63
2023-05-05T00:40:29.998Z,100649.78
2023-05-05T00:40:41.648Z,100654.13
2023-05-05T00:40:53.422Z,100660.28
2023-05-05T00:41:05.174Z,100656.78
2023-05-05T00:41:18.239Z,100650.63
2023-05-05T00:41:30.004Z,100657.84
2023-05-05T00:41:41.823Z,100647.94
2023-05-05T00:41:53.505Z,100655.16
2023-05-05T00:42:05.431Z,100658.66
2023-05-05T00:42:17.105Z,100650.78
2023-05-05T00:42:38.315Z,100653.47
2023-05-05T00:42:50.471Z,100656.16
2023-05-05T00:43:02.161Z,100658.00
2023-05-05T00:43:13.899Z,100651.19
2023-05-05T00:43:25.624Z,100660.69
2023-05-05T00:43:37.424Z,100660.69
2023-05-05T00:43:49.135Z,100659.88
2023-05-05T00:44:00.915Z,100651.84
2023-05-05T00:44:12.672Z,100652.84
2023-05-05T00:44:41.655Z,100658.00
2023-05-05T00:44:53.291Z,100649.97
2023-05-05T00:45:05.973Z,100652.00
2023-05-05T00:45:18.989Z,100656.16
2023-05-05T00:45:30.964Z,100651.63
2023-05-05T00:45:42.741Z,100656.38
2023-05-05T00:46:01.125Z,100657.19
2023-05-05T00:46:22.269Z,100651.84
2023-05-05T00:46:35.295Z,100659.88
2023-05-05T00:46:47.110Z,100652.84
2023-05-05T00:46:58.972Z,100658.19
2023-05-05T00:47:11.416Z,100657.38
2023-05-05T00:47:23.201Z,100653.88
2023-05-05T00:47:35.419Z,100645.19
2023-05-05T00:47:50.487Z,100654.88
2023-05-05T00:48:02.581Z,100651.38
2023-05-05T00:48:14.420Z,100665.59
2023-05-05T00:48:26.203Z,100648.69
2023-05-05T00:48:37.913Z,100657.56
2023-05-05T00:48:50.338Z,100652.19
2023-05-05T00:49:02.179Z,100651.59
2023-05-05T00:49:13.948Z,100657.56
2023-05-05T00:49:25.819Z,100647.88
2023-05-05T00:49:38.585Z,100652.41
2023-05-05T00:49:50.740Z,100648.69
2023-05-05T00:50:03.247Z,100651.19
2023-05-05T00:50:23.032Z,100652.19
2023-05-05T00:50:35.158Z,100646.22
2023-05-05T00:50:46.867Z,100659.41
2023-05-05T00:50:59.386Z,100649.72
2023-05-05T00:51:11.222Z,100652.19
2023-05-05T00:51:24.382Z,100652.41
2023-05-05T00:51:36.582Z,100649.09
2023-05-05T00:51:48.347Z,100644.56
2023-05-05T00:52:00.258Z,100644.56
2023-05-05T00:52:11.989Z,100648.28
2023-05-05T00:52:24.303Z,100643.09
2023-05-05T00:52:36.559Z,100644.56
2023-05-05T00:52:48.933Z,100648.28
2023-05-05T00:53:02.176Z,100647.41
2023-05-05T00:53:14.161Z,100647.41
2023-05-05T00:53:27.093Z,100649.09
2023-05-05T00:53:38.763Z,100645.78
2023-05-05T00:53:50.802Z,100650.31
2023-05-05T00:54:02.775Z,100651.13
2023-05-05T00:54:14.436Z,100645.78
2023-05-05T00:54:26.200Z,100642.63
2023-05-05T00:54:38.095Z,100647.63
2023-05-05T00:54:49.910Z,100648.63
2023-05-05T00:55:02.099Z,100648.63
2023-05-05T00:55:14.135Z,100649.50
2023-05-05T00:55:26.236Z,100653.16
2023-05-05T00:55:38.084Z,100648.84
2023-05-05T00:55:49.921Z,100646.16
2023-05-05T00:56:01.904Z,100647.16
2023-05-05T00:56:14.076Z,100647.81
2023-05-05T00:56:27.453Z,100650.66
2023-05-05T00:56:39.274Z,100648.00
2023-05-05T00:56:51.628Z,100640.16
2023-05-05T00:57:04.054Z,100643.50
2023-05-05T00:57:15.878Z,100647.16
2023-05-05T00:57:27.703Z,100645.53
2023-05-05T00:57:39.685Z,100642.03
2023-05-05T00:57:51.460Z,100649.03
2023-05-05T00:58:03.571Z,100645.72
2023-05-05T00:58:15.317Z,100645.72
2023-05-05T00:58:28.223Z,100649.84
2023-05-05T00:58:41.477Z,100643.22
2023-05-05T00:58:53.690Z,100648.00
2023-05-05T00:59:05.551Z,100644.50
2023-05-05T00:59:17.329Z,100646.34
2023-05-05T00:59:30.494Z,100643.84
2023-05-05T00:59:43.223Z,100648.22
2023-05-05T00:59:56.294Z,100637.03
2023-05-05T01:00:09.263Z,100640.75
2023-05-05T01:00:21.354Z,100645.72
2023-05-05T01:00:34.218Z,100638.72
2023-05-05T01:00:45.868Z,100648.22
2023-05-05T01:00:57.665Z,100644.06
2023-05-05T01:01:11.317Z,100645.72
2023-05-05T01:01:23.214Z,100636.84
2023-05-05T01:01:35.156Z,100646.75
2023-05-05T01:01:47.016Z,100652.09
2023-05-05T01:01:59.482Z,100640.53
2023-05-05T01:02:11.337Z,100639.72
2023-05-05T01:02:23.136Z,100649.44
2023-05-05T01:02:34.937Z,100647.75
2023-05-05T01:02:46.768Z,100650.44
2023-05-05T01:02:59.567Z,100645.25
2023-05-05T01:03:12.888Z,100646.09
2023-05-05T01:03:24.907Z,100641.75
2023-05-05T01:03:38.261Z,100646.94
2023-05-05T01:03:50.163Z,100641.56
2023-05-05T01:04:02.087Z,100648.78
2023-05-05T01:04:13.936Z,100643.44
2023-05-05T01:04:26.352Z,100641.56
2023-05-05T01:04:38.060Z,100643.44
2023-05-05T01:04:49.814Z,100654.13
2023-05-05T01:05:01.854Z,100647.09
2023-05-05T01:05:15.611Z,100646.09
2023-05-05T01:05:29.974Z,100649.78
2023-05-05T01:05:50.499Z,100650.59
2023-05-05T01:06:12.686Z,100644.44
2023-05-05T01:06:41.757Z,100649.78
2023-05-05T01:07:13.593Z,100650.00
2023-05-05T01:07:35.693Z,100648.97
2023-05-05T01:08:01.021Z,100648.13
2023-05-05T01:08:27.607Z,100647.50
2023-05-05T01:08:51.203Z,100648.31
2023-05-05T01:09:11.360Z,100646.47
2023-05-05T01:09:34.822Z,100647.50
2023-05-05T01:10:04.222Z,100644.81
2023-05-05T01:10:29.750Z,100646.03
2023-05-05T01:10:48.008Z,100645.81
2023-05-05T01:11:06.359Z,100648.50
2023-05-05T01:11:25.364Z,100650.19
2023-05-05T01:11:46.187Z,100646.03
2023-05-05T01:12:10.485Z,100644.19
2023-05-05T01:12:33.059Z,100644.34
2023-05-05T01:12:53.612Z,100650.56
2023-05-05T01:13:16.581Z,100643.72
2023-05-05T01:13:37.246Z,100647.25
2023-05-05T01:13:57.646Z,100639.41
2023-05-05T01:14:14.461Z,100648.25
2023-05-05T01:14:35.132Z,100643.94
2023-05-05T01:14:59.738Z,100641.25
2023-05-05T01:15:18.894Z,100640.63
2023-05-05T01:15:34.168Z,100636.09
2023-05-05T01:15:50.555Z,100644.94
2023-05-05T01:16:11.970Z,100642.47
2023-05-05T01:16:27.330Z,100637.13
2023-05-05T01:16:50.415Z,100634.44
2023-05-05T01:17:10.256Z,100640.63
2023-05-05T01:17:28.873Z,100635.25
2023-05-05T01:17:44.889Z,100631.75
2023-05-05T01:18:02.708Z,100637.94
2023-05-05T01:18:23.784Z,100633.59
2023-05-05T01:18:41.366Z,100636.25
2023-05-05T01:18:59.365Z,100637.94
2023-05-05T01:19:28.531Z,100636.25
2023-05-05T01:20:07.746Z,100637.94
2023-05-05T01:20:25.014Z,100636.09
2023-05-05T01:20:44.834Z,100637.75
2023-05-05T01:21:08.895Z,100629.91
2023-05-05T01:21:29.125Z,100634.88
2023-05-05T01:21:43.713Z,100636.53
2023-05-05T01:21:58.792Z,100630.34
2023-05-05T01:22:14.691Z,100636.34
2023-05-05T01:22:34.658Z,100630.16
2023-05-05T01:22:50.967Z,100633.88
2023-05-05T01:23:06.510Z,100633.00
2023-05-05T01:23:30.820Z,100634.69
2023-05-05T01:24:10.553Z,100632.81
2023-05-05T01:24:41.678Z,100637.19
2023-05-05T01:25:09.842Z,100633.00
2023-05-05T01:25:41.197Z,100634.03
2023-05-05T01:26:08.428Z,100636.72
2023-05-05T01:26:47.475Z,100639.22
2023-05-05T01:27:19.882Z,100634.22
2023-05-05T01:27:47.926Z,100632.41
2023-05-05T01:28:21.569Z,100636.72
2023-05-05T01:29:07.832Z,100627.03
2023-05-05T01:29:34.481Z,100628.69
2023-05-05T01:30:02.011Z,100634.22
2023-05-05T01:30:57.643Z,100633.22
2023-05-05T01:31:20.811Z,100638.56
2023-05-05T01:31:44.989Z,100640.22
2023-05-05T01:32:00.014Z,100635.69
2023-05-05T01:32:14.596Z,100636.53
2023-05-05T01:32:28.652Z,100631.53
2023-05-05T01:32:47.821Z,100625.81
2023-05-05T01:33:06.294Z,100636.53
2023-05-05T01:33:29.107Z,100641.91
2023-05-05T01:33:46.116Z,100625.38
2023-05-05T01:34:00.450Z,100629.50
2023-05-05T01:34:16.622Z,100638.38
2023-05-05T01:34:34.420Z,100632.19
2023-05-05T01:34:53.722Z,100635.91
2023-05-05T01:35:13.609Z,100638.56
2023-05-05T01:35:29.876Z,100633.41
2023-05-05T01:35:45.744Z,100639.56
2023-05-05T01:36:04.109Z,100635.25
2023-05-05T01:36:23.357Z,100636.25
2023-05-05T01:36:37.970Z,100638.13
2023-05-05T01:36:56.892Z,100625.75
2023-05-05T01:37:14.952Z,100635.44
2023-05-05T01:37:30.306Z,100633.78
2023-05-05T01:37:47.605Z,100634.63
2023-05-05T01:38:02.925Z,100638.31
2023-05-05T01:38:18.532Z,100636.66
2023-05-05T01:38:35.937Z,100633.97
2023-05-05T01:38:51.439Z,100634.78
2023-05-05T01:39:04.588Z,100633.16
2023-05-05T01:39:17.856Z,100639.31
2023-05-05T01:39:33.317Z,100626.13
2023-05-05T01:39:49.932Z,100635.00
2023-05-05T01:40:06.343Z,100636.00
2023-05-05T01:40:24.923Z,100637.69
2023-05-05T01:40:42.137Z,100632.34
2023-05-05T01:41:01.308Z,100634.16
2023-05-05T01:41:17.117Z,100633.34
2023-05-05T01:41:36.401Z,100640.53
2023-05-05T01:41:51.062Z,100636.00
2023-05-05T01:42:06.304Z,100628.81
2023-05-05T01:42:20.983Z,100634.16
2023-05-05T01:42:35.048Z,100629.44
2023-05-05T01:42:47.686Z,100634.78
2023-05-05T01:43:01.647Z,100635.66
2023-05-05T01:43:15.783Z,100635.66
2023-05-05T01:43:30.622Z,100629.91
2023-05-05T01:43:46.859Z,100639.41
2023-05-05T01:44:04.753Z,100633.22
2023-05-05T01:44:17.034Z,100633.22
2023-05-05T01:44:32.910Z,100639.41
2023-05-05T01:44:46.383Z,100634.22
2023-05-05T01:45:00.155Z,100636.72
2023-05-05T01:45:14.513Z,100638.38
2023-05-05T01:45:32.053Z,100629.50
2023-05-05T01:45:45.658Z,100631.38
2023-05-05T01:45:59.971Z,100633.00
2023-05-05T01:46:13.602Z,100635.06
2023-05-05T01:46:27.743Z,100631.38
2023-05-05T01:46:39.479Z,100637.53
2023-05-05T01:46:54.313Z,100640.22
2023-05-05T01:47:06.677Z,100637.53
2023-05-05T01:47:20.957Z,100639.56
2023-05-05T01:47:33.405Z,100640.44
2023-05-05T01:47:46.818Z,100635.91
2023-05-05T01:48:00.481Z,100636.72
2023-05-05T01:48:15.118Z,100634.88
2023-05-05T01:48:27.862Z,100636.72
2023-05-05T01:48:42.309Z,100642.91
2023-05-05T01:48:55.904Z,100636.91
2023-05-05T01:49:09.852Z,100628.03
2023-05-05T01:49:22.243Z,100633.22
2023-05-05T01:49:35.614Z,100637.53
2023-05-05T01:49:48.627Z,100640.22
2023-05-05T01:50:01.676Z,100637.75
2023-05-05T01:50:14.947Z,100631.53
2023-05-05T01:50:28.214Z,100634.88
2023-05-05T01:50:41.426Z,100630.53
2023-05-05T01:50:54.017Z,100627.41
2023-05-05T01:51:06.537Z,100638.56
2023-05-05T01:51:21.015Z,100631.94
2023-05-05T01:51:34.755Z,100639.56
2023-05-05T01:51:49.166Z,100635.91
2023-05-05T01:52:01.422Z,100630.72
2023-05-05T01:52:14.515Z,100636.09
2023-05-05T01:52:27.195Z,100636.91
2023-05-05T01:52:41.110Z,100636.91
2023-05-05T01:52:54.207Z,100633.41
2023-05-05T01:53:07.895Z,100636.09
2023-05-05T01:53:23.288Z,100630.91
2023-05-05T01:53:36.318Z,100630.09
2023-05-05T01:53:49.905Z,100633.59
2023-05-05T01:54:04.519Z,100635.44
2023-05-05T01:54:18.455Z,100629.44
2023-05-05T01:54:33.446Z,100632.97
2023-05-05T01:54:47.837Z,100636.47
2023-05-05T01:55:04.965Z,100639.16
2023-05-05T01:55:18.426Z,100635.66
2023-05-05T01:55:32.148Z,100637.94
2023-05-05T01:55:45.355Z,100631.94
2023-05-05T01:55:58.333Z,100635.44
2023-05-05T01:56:12.167Z,100634.78
2023-05-05T01:56:26.094Z,100637.13
2023-05-05T01:56:41.108Z,100631.75
2023-05-05T01:56:57.117Z,100636.25
2023-05-05T01:57:11.304Z,100633.59
2023-05-05T01:57:25.770Z,100631.75
2023-05-05T01:57:39.473Z,100642.25
2023-05-05T01:57:53.148Z,100630.91
2023-05-05T01:58:06.963Z,100631.75
2023-05-05T01:58:21.524Z,100633.59
2023-05-05T01:58:34.608Z,100630.09
2023-05-05T01:58:47.395Z,100634.63
2023-05-05T01:59:01.280Z,100637.28
2023-05-05T01:59:13.814Z,100634.63
2023-05-05T01:59:28.482Z,100636.47
2023-05-05T01:59:40.189Z,100636.47
2023-05-05T01:59:53.660Z,100635.66
2023-05-05T02:00:07.859Z,100631.94
2023-05-05T02:00:27.223Z,100631.94
2023-05-05T02:00:40.034Z,100636.47
2023-05-05T02:00:54.019Z,100631.13
2023-05-05T02:01:08.535Z,100635.66
2023-05-05T02:01:21.726Z,100626.13
2023-05-05T02:01:37.422Z,100634.78
2023-05-05T02:01:50.809Z,100633.97
2023-05-05T02:02:04.161Z,100627.81
2023-05-05T02:02:16.584Z,100630.28
2023-05-05T02:02:28.854Z,100629.44
2023-05-05T02:02:41.648Z,100633.16
2023-05-05T02:02:55.765Z,100628.63
2023-05-05T02:03:09.333Z,100629.00
2023-05-05T02:03:22.852Z,100630.47
2023-05-05T02:03:37.570Z,100635.00
2023-05-05T02:03:50.733Z,100630.28
2023-05-05T02:04:05.006Z,100633.97
2023-05-05T02:04:18.461Z,100629.84
2023-05-05T02:04:32.769Z,100628.63
2023-05-05T02:04:45.727Z,100632.34
2023-05-05T02:04:58.953Z,100628.63
2023-05-05T02:05:12.509Z,100628.63
2023-05-05T02:05:26.422Z,100629.66
2023-05-05T02:05:39.670Z,100628.81
2023-05-05T02:05:52.147Z,100625.75
2023-05-05T02:06:05.719Z,100635.66
2023-05-05T02:06:19.245Z,100619.59
2023-05-05T02:06:32.444Z,100626.34
2023-05-05T02:06:46.476Z,100630.28
2023-05-05T02:06:59.553Z,100629.44
2023-05-05T02:07:12.791Z,100630.28
2023-05-05T02:07:25.533Z,100621.41
2023-05-05T02:07:37.997Z,100634.63
2023-05-05T02:07:51.223Z,100624.09
2023-05-05T02:08:05.273Z,100629.44
2023-05-05T02:08:17.995Z,100625.75
2023-05-05T02:08:31.429Z,100623.91
2023-05-05T02:08:44.675Z,100628.44
2023-05-05T02:08:57.560Z,100622.88
2023-05-05T02:09:12.781Z,100625.56
2023-05-05T02:09:26.453Z,100625.75
2023-05-05T02:09:39.145Z,100623.25
2023-05-05T02:09:51.910Z,100628.44
2023-05-05T02:10:06.765Z,100620.59
2023-05-05T02:10:19.112Z,100628.44
2023-05-05T02:10:31.686Z,100623.91
2023-05-05T02:10:44.425Z,100625.75
2023-05-05T02:10:58.115Z,100625.75
2023-05-05T02:11:12.049Z,100625.75
2023-05-05T02:11:24.984Z,100629.25
2023-05-05T02:11:38.111Z,100630.28
2023-05-05T02:11:50.193Z,100634.63
2023-05-05T02:12:04.558Z,100625.94
2023-05-05T02:12:19.238Z,100626.75
2023-05-05T02:12:32.657Z,100623.25
2023-05-05T02:12:47.107Z,100624.09
2023-05-05T02:13:00.645Z,100630.28
2023-05-05T02:13:13.207Z,100633.78
2023-05-05T02:13:25.328Z,100625.94
2023-05-05T02:13:38.538Z,100621.81
2023-05-05T02:13:51.514Z,100629.66
2023-05-05T02:14:05.259Z,100622.44
2023-05-05T02:14:19.274Z,100625.94
2023-05-05T02:14:33.126Z,100630.47
2023-05-05T02:14:45.799Z,100618.09
2023-05-05T02:15:01.307Z,100626.34
2023-05-05T02:15:15.659Z,100624.94
2023-05-05T02:15:29.021Z,100624.72
2023-05-05T02:15:43.904Z,100627.41
2023-05-05T02:15:57.129Z,100621.22
2023-05-05T02:16:09.599Z,100627.41
2023-05-05T02:16:22.571Z,100623.09
2023-05-05T02:16:36.391Z,100629.25
2023-05-05T02:16:48.908Z,100622.25
2023-05-05T02:17:01.781Z,100622.88
2023-05-05T02:17:16.014Z,100624.09
2023-05-05T02:17:29.963Z,100635.44
2023-05-05T02:17:42.777Z,100623.09
2023-05-05T02:17:55.385Z,100628.22
2023-05-05T02:18:07.292Z,100628.22
2023-05-05T02:18:20.497Z,100630.91
2023-05-05T02:18:33.273Z,100622.88
2023-05-05T02:18:46.214Z,100631.94
2023-05-05T02:19:01.495Z,100624.72
2023-05-05T02:19:15.089Z,100624.09
2023-05-05T02:19:29.801Z,100626.97
2023-05-05T02:19:44.156Z,100623.25
2023-05-05T02:19:58.644Z,100622.44
2023-05-05T02:20:14.007Z,100630.28
2023-05-05T02:20:27.691Z,100626.75
2023-05-05T02:20:40.883Z,100618.31
2023-05-05T02:20:52.997Z,100625.13
2023-05-05T02:21:05.386Z,100621.41
2023-05-05T02:21:17.499Z,100623.09
2023-05-05T02:21:29.198Z,100623.25
2023-05-05T02:21:41.551Z,100625.75
2023-05-05T02:21:53.357Z,100620.41
2023-05-05T02:22:05.247Z,100630.09
2023-05-05T02:22:18.340Z,100620.41
2023-05-05T02:22:30.070Z,100627.63
2023-05-05T02:22:42.017Z,100627.41
2023-05-05T02:22:53.792Z,100623.91
2023-05-05T02:23:08.213Z,100621.22
2023-05-05T02:23:20.172Z,100625.56
2023-05-05T02:23:32.397Z,100629.09
2023-05-05T02:23:45.996Z,100626.59
2023-05-05T02:23:58.387Z,100625.56
2023-05-05T02:24:10.529Z,100626.41
2023-05-05T02:24:22.383Z,100620.41
2023-05-05T02:24:34.466Z,100624.53
2023-05-05T02:24:46.303Z,100625.38
2023-05-05T02:24:58.412Z,100622.69
2023-05-05T02:25:10.305Z,100627.03
2023-05-05T02:25:23.497Z,100627.03
2023-05-05T02:25:38.621Z,100623.34
2023-05-05T02:25:55.116Z,100626.19
2023-05-05T02:26:09.113Z,100624.97
2023-05-05T02:26:23.671Z,100624.38
2023-05-05T02:26:39.531Z,100617.97
2023-05-05T02:26:53.024Z,100619.19
2023-05-05T02:27:07.555Z,100621.69
2023-05-05T02:27:21.680Z,100627.03
2023-05-05T02:27:35.911Z,100623.34
2023-05-05T02:27:49.242Z,100620.84
2023-05-05T02:28:02.542Z,100628.03
2023-05-05T02:28:23.121Z,100619.19
2023-05-05T02:28:40.630Z,100626.19
2023-05-05T02:29:02.172Z,100621.69
2023-05-05T02:29:18.670Z,100628.88
2023-05-05T02:29:34.617Z,100623.50
2023-05-05T02:29:48.861Z,100629.09
2023-05-05T02:30:06.699Z,100627.22
2023-05-05T02:30:20.465Z,100626.41
2023-05-05T02:30:36.329Z,100618.56
2023-05-05T02:30:57.633Z,100624.38
2023-05-05T02:31:12.215Z,100618.78
2023-05-05T02:31:27.708Z,100624.97
2023-05-05T02:31:45.277Z,100618.16
2023-05-05T02:32:03.568Z,100626.19
2023-05-05T02:32:23.359Z,100622.50
2023-05-05T02:32:39.187Z,100626.00
2023-05-05T02:32:56.215Z,100620.66
2023-05-05T02:33:14.115Z,100629.50
2023-05-05T02:33:29.099Z,100624.38
2023-05-05T02:33:43.143Z,100621.47
2023-05-05T02:33:57.861Z,100621.47
2023-05-05T02:34:11.135Z,100624.16
2023-05-05T02:34:26.985Z,100623.34
2023-05-05T02:34:41.069Z,100626.00
2023-05-05T02:34:58.553Z,100626.84
2023-05-05T02:35:14.923Z,100626.00
2023-05-05T02:35:34.710Z,100619.84
2023-05-05T02:35:47.285Z,100623.34
2023-05-05T02:36:07.429Z,100632.41
2023-05-05T02:36:22.864Z,100623.34
2023-05-05T02:36:41.340Z,100628.69
2023-05-05T02:36:56.950Z,100620.66
2023-05-05T02:37:15.452Z,100619.84
2023-05-05T02:37:31.733Z,100629.50
2023-05-05T02:37:48.205Z,100624.97
2023-05-05T02:38:02.994Z,100619.84
2023-05-05T02:38:23.754Z,100624.16
2023-05-05T02:38:40.216Z,100623.16
2023-05-05T02:38:56.471Z,100618.78
2023-05-05T02:39:14.374Z,100623.34
2023-05-05T02:39:35.576Z,100619.63
2023-05-05T02:39:58.820Z,100615.47
2023-05-05T02:40:15.217Z,100625.38
2023-05-05T02:40:30.105Z,100622.69
2023-05-05T02:40:44.753Z,100618.38
2023-05-05T02:41:01.691Z,100621.03
2023-05-05T02:41:18.265Z,100625.75
2023-05-05T02:41:33.111Z,100610.53
2023-05-05T02:41:50.314Z,100629.09
2023-05-05T02:42:10.710Z,100615.88
2023-05-05T02:42:25.733Z,100622.88
2023-05-05T02:42:40.676Z,100625.75
2023-05-05T02:42:57.272Z,100622.25
2023-05-05T02:43:17.962Z,100627.41
2023-05-05T02:43:31.982Z,100622.25
2023-05-05T02:43:46.169Z,100617.72